Time;durP1;ratioP1;P1;durP2;ratioP2;P2;SDS_P1;SDS_P2;PMS_P1;PMS_P2;Temp;Humidity;BMP_temperature;BMP_pressure;BME280_temperature;BME280_humidity;BME280_pressure;Samples;Min_cycle;Max_cycle;Signal;HPM_P1;HPM_P2
2023/05/31 00:00:10;;;;;;;10.30;8.32;;;15.10;99.90;;;;;;2091714;28;20021;-71
2023/05/31 00:01:11;;;;;;;9.55;8.65;;;15.10;99.90;;;;;;2093691;28;20020;-71
2023/05/31 00:02:11;;;;;;;9.20;8.32;;;15.10;99.90;;;;;;2092394;28;20033;-71
2023/05/31 00:03:13;;;;;;;9.02;8.20;;;15.00;99.90;;;;;;2092428;28;20105;-71
2023/05/31 00:04:13;;;;;;;11.32;9.20;;;15.00;99.90;;;;;;2091738;28;20021;-72
2023/05/31 00:05:14;;;;;;;8.73;7.88;;;15.00;99.90;;;;;;2094028;28;20017;-71
2023/05/31 00:06:14;;;;;;;9.13;8.30;;;15.00;99.90;;;;;;2093169;28;20030;-71
2023/05/31 00:07:15;;;;;;;11.93;9.38;;;15.00;99.90;;;;;;2092630;28;20025;-71
2023/05/31 00:08:15;;;;;;;9.18;8.27;;;15.00;99.90;;;;;;2090966;28;20119;-71
2023/05/31 00:09:16;;;;;;;9.60;8.70;;;15.00;99.90;;;;;;2092981;28;20025;-71
2023/05/31 00:10:17;;;;;;;9.10;7.40;;;15.00;99.90;;;;;;2093519;28;20493;-71
2023/05/31 00:11:17;;;;;;;8.15;7.43;;;15.00;99.90;;;;;;2091800;28;20040;-71
2023/05/31 00:12:18;;;;;;;9.07;8.20;;;15.00;99.90;;;;;;2091902;28;20033;-71
2023/05/31 00:13:22;;;;;;;10.63;9.63;;;14.90;99.90;;;;;;2093642;28;20029;-71
2023/05/31 00:14:22;;;;;;;11.25;8.77;;;14.90;99.90;;;;;;2091439;28;20059;-71
2023/05/31 00:15:23;;;;;;;9.05;8.13;;;14.90;99.90;;;;;;2093898;28;20036;-71
2023/05/31 00:16:24;;;;;;;9.52;8.60;;;14.90;99.90;;;;;;2093519;28;20032;-71
2023/05/31 00:17:24;;;;;;;9.15;8.20;;;14.90;99.90;;;;;;2091552;28;20021;-71
2023/05/31 00:18:25;;;;;;;7.88;7.18;;;14.90;99.90;;;;;;2094168;28;20428;-71
2023/05/31 00:19:25;;;;;;;9.90;8.90;;;14.90;99.90;;;;;;2092829;28;20044;-71
2023/05/31 00:20:26;;;;;;;7.82;7.03;;;14.90;99.90;;;;;;2091155;28;20017;-71
2023/05/31 00:21:27;;;;;;;7.78;6.97;;;14.80;99.90;;;;;;2094213;28;20020;-71
2023/05/31 00:22:27;;;;;;;10.75;8.73;;;14.80;99.90;;;;;;2092207;28;20025;-71
2023/05/31 00:23:28;;;;;;;10.10;9.15;;;14.80;99.90;;;;;;2094208;28;20017;-71
2023/05/31 00:24:28;;;;;;;8.23;7.43;;;14.80;99.90;;;;;;2092896;28;20021;-71
2023/05/31 00:25:29;;;;;;;10.35;9.02;;;14.80;99.90;;;;;;2092847;28;20034;-71
2023/05/31 00:26:29;;;;;;;9.85;8.45;;;14.80;99.90;;;;;;2093389;28;20028;-71
2023/05/31 00:27:30;;;;;;;8.63;7.82;;;14.80;99.90;;;;;;2093646;28;20032;-71
2023/05/31 00:28:30;;;;;;;10.05;8.60;;;14.80;99.90;;;;;;2091590;28;20566;-71
2023/05/31 00:29:31;;;;;;;10.13;9.23;;;14.80;99.90;;;;;;2091417;28;20131;-71
2023/05/31 00:30:31;;;;;;;9.77;8.77;;;14.80;99.90;;;;;;2091532;28;20075;-71
2023/05/31 00:31:32;;;;;;;8.50;7.70;;;14.80;99.90;;;;;;2093768;28;20071;-71
2023/05/31 00:32:33;;;;;;;12.38;8.80;;;14.80;99.90;;;;;;2093493;28;20023;-71
2023/05/31 00:33:33;;;;;;;10.25;8.90;;;14.80;99.90;;;;;;2093149;28;20025;-71
2023/05/31 00:34:34;;;;;;;10.50;8.60;;;14.70;99.90;;;;;;2095221;28;20040;-71
2023/05/31 00:35:34;;;;;;;9.27;8.43;;;14.70;99.90;;;;;;2082920;28;20519;-71
2023/05/31 00:36:35;;;;;;;8.45;7.65;;;14.70;99.90;;;;;;2093864;28;20399;-71
2023/05/31 00:37:37;;;;;;;8.95;8.07;;;14.70;99.90;;;;;;2091997;28;20376;-71
2023/05/31 00:38:38;;;;;;;6.85;6.22;;;14.70;99.90;;;;;;2091735;28;20501;-71
2023/05/31 00:39:38;;;;;;;10.23;8.95;;;14.70;99.90;;;;;;2091750;28;20405;-72
2023/05/31 00:40:39;;;;;;;8.77;7.65;;;14.70;99.90;;;;;;2091906;28;20028;-71
2023/05/31 00:41:39;;;;;;;9.23;8.30;;;14.60;99.90;;;;;;2096045;28;20023;-71
2023/05/31 00:42:40;;;;;;;8.25;7.55;;;14.70;99.90;;;;;;2094709;28;20487;-71
2023/05/31 00:43:41;;;;;;;8.23;7.43;;;14.60;99.90;;;;;;2091454;28;20080;-71
2023/05/31 00:44:41;;;;;;;10.00;7.22;;;14.60;99.90;;;;;;2092359;28;20031;-71
2023/05/31 00:45:42;;;;;;;9.68;8.55;;;14.60;99.90;;;;;;2094286;28;20055;-72
2023/05/31 00:46:42;;;;;;;9.40;8.20;;;14.60;99.90;;;;;;2091387;28;20035;-71
2023/05/31 00:47:43;;;;;;;9.02;8.07;;;14.60;99.90;;;;;;2090198;28;20025;-71
2023/05/31 00:48:45;;;;;;;8.80;7.95;;;14.60;99.90;;;;;;2092857;28;20050;-71
2023/05/31 00:49:45;;;;;;;8.43;7.63;;;14.60;99.90;;;;;;2090683;28;20017;-71
2023/05/31 00:50:47;;;;;;;9.82;8.93;;;14.60;99.90;;;;;;2092736;28;20041;-71
2023/05/31 00:51:48;;;;;;;9.15;8.30;;;14.60;99.90;;;;;;2091981;28;20103;-71
2023/05/31 00:52:51;;;;;;;12.93;8.70;;;14.60;99.90;;;;;;2092921;28;20024;-72
2023/05/31 00:53:52;;;;;;;9.23;8.30;;;14.50;99.90;;;;;;2092677;28;20036;-71
2023/05/31 00:54:53;;;;;;;9.63;8.73;;;14.50;99.90;;;;;;2094554;28;20025;-71
2023/05/31 00:55:53;;;;;;;9.20;8.25;;;14.50;99.90;;;;;;2094292;28;20029;-71
2023/05/31 00:56:54;;;;;;;10.43;8.38;;;14.50;99.90;;;;;;2094375;28;20369;-71
2023/05/31 00:57:56;;;;;;;6.40;5.85;;;14.50;99.90;;;;;;2091083;28;20025;-71
2023/05/31 00:58:58;;;;;;;7.80;6.55;;;14.50;99.90;;;;;;2093767;28;20484;-71
2023/05/31 00:59:59;;;;;;;8.50;7.65;;;14.50;99.90;;;;;;2090399;28;20079;-71
2023/05/31 01:01:00;;;;;;;9.52;8.60;;;14.50;99.90;;;;;;2091006;28;20529;-71
2023/05/31 01:02:03;;;;;;;8.30;7.50;;;14.50;99.90;;;;;;2092439;28;20451;-71
2023/05/31 01:03:04;;;;;;;8.15;7.32;;;14.50;99.90;;;;;;2092044;28;20871;-71
2023/05/31 01:04:07;;;;;;;9.30;8.35;;;14.50;99.90;;;;;;2081519;28;20389;-71
2023/05/31 01:05:08;;;;;;;9.00;8.20;;;14.40;99.90;;;;;;2091812;28;20045;-71
2023/05/31 01:06:10;;;;;;;9.13;8.20;;;14.40;99.90;;;;;;2092228;28;20044;-71
2023/05/31 01:07:10;;;;;;;9.38;8.48;;;14.40;99.90;;;;;;2089897;28;20031;-71
2023/05/31 01:08:11;;;;;;;8.52;7.82;;;14.40;99.90;;;;;;2093681;28;20040;-71
2023/05/31 01:09:12;;;;;;;10.10;9.13;;;14.40;99.90;;;;;;2091074;28;20140;-71
2023/05/31 01:10:14;;;;;;;9.15;8.25;;;14.40;99.90;;;;;;2090315;28;20107;-71
2023/05/31 01:11:42;;;;;;;9.07;7.50;;;14.40;99.90;;;;;;2092222;28;20226;-71
2023/05/31 01:13:02;;;;;;;8.38;7.35;;;14.40;99.90;;;;;;2093429;28;20021;-71
2023/05/31 01:14:21;;;;;;;9.13;8.20;;;14.30;99.90;;;;;;2092545;28;20902;-71
2023/05/31 01:15:27;;;;;;;8.18;7.38;;;14.30;99.90;;;;;;2092047;28;20039;-71
2023/05/31 01:16:56;;;;;;;7.80;7.10;;;14.30;99.90;;;;;;2091161;28;20020;-71
2023/05/31 01:18:19;;;;;;;7.82;6.97;;;14.30;99.90;;;;;;2090040;28;20499;-71
2023/05/31 01:19:47;;;;;;;8.63;7.72;;;14.20;99.90;;;;;;2092584;28;20047;-71
2023/05/31 01:20:50;;;;;;;7.38;6.28;;;14.20;99.90;;;;;;2092317;28;20032;-71
2023/05/31 01:22:14;;;;;;;8.73;7.85;;;14.20;99.90;;;;;;2093956;28;20024;-71
2023/05/31 01:23:37;;;;;;;8.15;7.45;;;14.20;99.90;;;;;;2091894;28;20021;-71
2023/05/31 01:24:52;;;;;;;8.07;7.32;;;14.20;99.90;;;;;;2093525;28;20024;-71
2023/05/31 01:26:31;;;;;;;8.10;7.40;;;14.20;99.90;;;;;;2090355;28;20020;-71
2023/05/31 01:27:32;;;;;;;8.52;7.72;;;14.10;99.90;;;;;;2091614;28;20028;-71
2023/05/31 01:28:36;;;;;;;10.75;8.82;;;14.10;99.90;;;;;;2085679;28;20119;-71
2023/05/31 01:29:39;;;;;;;7.93;7.13;;;14.10;99.90;;;;;;2092713;28;20519;-71
2023/05/31 01:30:40;;;;;;;7.07;6.40;;;14.10;99.90;;;;;;2092336;28;20053;-71
2023/05/31 01:31:42;;;;;;;8.95;8.10;;;14.10;99.90;;;;;;2088810;28;20016;-71
2023/05/31 01:32:43;;;;;;;8.15;7.32;;;14.10;99.90;;;;;;2091904;28;20050;-71
2023/05/31 01:33:45;;;;;;;8.68;7.78;;;14.10;99.90;;;;;;2092415;28;20024;-71
2023/05/31 01:34:46;;;;;;;8.15;7.30;;;14.10;99.90;;;;;;2092323;28;20415;-71
2023/05/31 01:35:46;;;;;;;8.07;6.72;;;14.10;99.90;;;;;;2093344;28;20032;-71
2023/05/31 01:36:47;;;;;;;10.13;8.35;;;14.10;99.90;;;;;;2092996;28;20020;-71
2023/05/31 01:37:47;;;;;;;7.90;7.10;;;14.10;99.90;;;;;;2091611;28;20086;-71
2023/05/31 01:38:48;;;;;;;7.72;7.03;;;14.10;99.90;;;;;;2090413;28;20017;-71
2023/05/31 01:39:51;;;;;;;8.70;7.97;;;14.00;99.90;;;;;;2090303;28;20036;-71
2023/05/31 01:40:54;;;;;;;11.02;9.10;;;14.10;99.90;;;;;;2092550;28;20036;-71
2023/05/31 01:41:56;;;;;;;8.82;7.93;;;14.00;99.90;;;;;;2090343;28;20424;-71
2023/05/31 01:42:58;;;;;;;8.48;7.25;;;14.00;99.90;;;;;;2090611;28;20017;-71
2023/05/31 01:44:00;;;;;;;8.50;7.70;;;14.00;99.90;;;;;;2090983;28;20029;-71
2023/05/31 01:45:01;;;;;;;7.65;6.82;;;14.00;99.90;;;;;;2092797;28;20496;-71
2023/05/31 01:46:03;;;;;;;8.65;7.85;;;14.00;99.90;;;;;;2093297;28;20035;-71
2023/05/31 01:47:04;;;;;;;8.80;8.00;;;14.00;99.90;;;;;;2090458;28;20031;-71
2023/05/31 01:48:07;;;;;;;7.88;7.07;;;14.00;99.90;;;;;;2091278;28;20017;-71
2023/05/31 01:49:09;;;;;;;8.65;7.60;;;13.90;99.90;;;;;;2095181;28;20606;-71
2023/05/31 01:50:12;;;;;;;9.30;8.18;;;14.00;99.90;;;;;;2093019;28;20584;-71
2023/05/31 01:51:14;;;;;;;7.70;6.95;;;14.00;99.90;;;;;;2092694;28;20143;-71
2023/05/31 01:52:17;;;;;;;7.88;7.18;;;13.90;99.90;;;;;;2090936;28;20021;-71
2023/05/31 01:53:17;;;;;;;9.55;8.32;;;13.90;99.90;;;;;;2093541;28;20496;-71
2023/05/31 01:54:18;;;;;;;6.57;5.97;;;13.90;99.90;;;;;;2092840;28;20720;-71
2023/05/31 01:55:19;;;;;;;7.95;7.25;;;13.90;99.90;;;;;;2090792;28;20095;-71
2023/05/31 01:56:21;;;;;;;7.43;6.75;;;13.90;99.90;;;;;;2091471;28;20036;-71
2023/05/31 01:57:22;;;;;;;8.80;7.90;;;13.90;99.90;;;;;;2093246;28;20420;-71
2023/05/31 01:58:24;;;;;;;7.60;6.90;;;13.80;99.90;;;;;;2090327;28;20108;-71
2023/05/31 01:59:25;;;;;;;8.30;7.50;;;13.80;99.90;;;;;;2090986;28;20099;-71
2023/05/31 02:00:26;;;;;;;8.25;7.53;;;13.80;99.90;;;;;;2091260;28;20033;-71
2023/05/31 02:01:28;;;;;;;8.75;7.28;;;13.80;99.90;;;;;;2093018;28;20032;-71
2023/05/31 02:02:29;;;;;;;8.13;7.32;;;13.80;99.90;;;;;;2093653;28;20645;-71
2023/05/31 02:03:29;;;;;;;7.65;6.95;;;13.80;99.90;;;;;;2092289;28;20054;-71
2023/05/31 02:04:30;;;;;;;7.10;6.40;;;13.80;99.90;;;;;;2091181;28;20058;-71
2023/05/31 02:05:31;;;;;;;7.63;6.88;;;13.70;99.90;;;;;;2091754;28;20027;-71
2023/05/31 02:06:36;;;;;;;8.32;7.53;;;13.70;99.90;;;;;;2091871;28;20028;-71
2023/05/31 02:07:44;;;;;;;8.05;7.25;;;13.70;99.90;;;;;;2097382;28;20028;-71
2023/05/31 02:08:45;;;;;;;8.07;7.38;;;13.70;99.90;;;;;;2088767;28;20136;-71
2023/05/31 02:09:45;;;;;;;7.72;6.93;;;13.70;99.90;;;;;;2090829;28;20087;-71
2023/05/31 02:10:46;;;;;;;6.93;6.22;;;13.70;99.90;;;;;;2089688;28;20020;-71
2023/05/31 02:11:46;;;;;;;7.38;6.78;;;13.70;99.90;;;;;;2091130;28;20035;-71
2023/05/31 02:12:50;;;;;;;8.13;7.35;;;13.70;99.90;;;;;;2092173;28;20024;-71
2023/05/31 02:13:50;;;;;;;8.80;7.80;;;13.60;99.90;;;;;;2093315;28;20129;-71
2023/05/31 02:14:51;;;;;;;8.82;8.02;;;13.60;99.90;;;;;;2094573;28;20024;-71
2023/05/31 02:15:51;;;;;;;8.70;7.88;;;13.60;99.90;;;;;;2084406;28;20068;-71
2023/05/31 02:16:52;;;;;;;8.57;7.78;;;13.60;99.90;;;;;;2093559;28;20029;-71
2023/05/31 02:17:52;;;;;;;9.32;8.43;;;13.60;99.90;;;;;;2091683;28;20021;-71
2023/05/31 02:18:53;;;;;;;8.80;8.00;;;13.60;99.90;;;;;;2089554;28;20032;-71
2023/05/31 02:19:54;;;;;;;7.50;6.80;;;13.60;99.90;;;;;;2091859;28;20021;-71
2023/05/31 02:20:55;;;;;;;8.93;8.07;;;13.60;99.90;;;;;;2092194;28;20050;-71
2023/05/31 02:21:55;;;;;;;7.65;6.95;;;13.60;99.90;;;;;;2091050;28;20528;-71
2023/05/31 02:22:56;;;;;;;8.43;7.72;;;13.50;99.90;;;;;;2090973;28;20032;-71
2023/05/31 02:23:57;;;;;;;7.78;7.07;;;13.50;99.90;;;;;;2089327;28;20043;-71
2023/05/31 02:24:57;;;;;;;10.63;9.20;;;13.50;99.90;;;;;;2089902;28;20099;-71
2023/05/31 02:25:58;;;;;;;9.75;8.23;;;13.50;99.90;;;;;;2088594;28;20108;-71
2023/05/31 02:26:58;;;;;;;9.88;8.25;;;13.50;99.90;;;;;;2090584;28;20074;-71
2023/05/31 02:27:59;;;;;;;9.07;7.13;;;13.50;99.90;;;;;;2089988;28;20062;-71
2023/05/31 02:29:00;;;;;;;8.00;7.20;;;13.50;99.90;;;;;;2091220;28;20024;-71
2023/05/31 02:30:00;;;;;;;7.22;6.30;;;13.50;99.90;;;;;;2089032;28;20032;-71
2023/05/31 02:31:01;;;;;;;11.00;8.27;;;13.40;99.90;;;;;;2094373;28;20522;-71
2023/05/31 02:32:01;;;;;;;7.85;7.05;;;13.40;99.90;;;;;;2093963;28;20033;-71
2023/05/31 02:33:02;;;;;;;10.07;9.05;;;13.40;99.90;;;;;;2092835;28;20099;-71
2023/05/31 02:34:03;;;;;;;10.05;9.15;;;13.40;99.90;;;;;;2091576;28;20020;-71
2023/05/31 02:35:05;;;;;;;10.15;9.25;;;13.40;99.90;;;;;;2091337;28;20407;-71
2023/05/31 02:36:06;;;;;;;9.73;8.50;;;13.40;99.90;;;;;;2092333;28;20186;-71
2023/05/31 02:37:07;;;;;;;9.50;8.70;;;13.40;99.90;;;;;;2091101;28;20036;-71
2023/05/31 02:38:07;;;;;;;9.40;8.55;;;13.40;99.90;;;;;;2092307;28;20021;-71
2023/05/31 02:39:08;;;;;;;9.85;8.73;;;13.40;99.90;;;;;;2092248;28;20035;-71
2023/05/31 02:40:08;;;;;;;9.82;8.93;;;13.40;99.90;;;;;;2091313;28;20028;-71
2023/05/31 02:41:09;;;;;;;8.77;7.97;;;13.40;99.90;;;;;;2092346;28;20780;-71
2023/05/31 02:42:10;;;;;;;8.98;8.07;;;13.30;99.90;;;;;;2093564;28;20050;-71
2023/05/31 02:43:10;;;;;;;9.18;8.38;;;13.30;99.90;;;;;;2092943;28;20074;-71
2023/05/31 02:44:11;;;;;;;8.05;7.32;;;13.30;99.90;;;;;;2091829;28;20167;-72
2023/05/31 02:45:12;;;;;;;9.35;8.48;;;13.30;99.90;;;;;;2092068;28;20039;-72
2023/05/31 02:46:13;;;;;;;11.15;9.38;;;13.30;99.90;;;;;;2091646;28;20024;-72
2023/05/31 02:47:14;;;;;;;11.43;8.63;;;13.30;99.90;;;;;;2094696;28;20584;-71
2023/05/31 02:48:14;;;;;;;10.73;8.95;;;13.30;99.90;;;;;;2093239;28;20024;-71
2023/05/31 02:49:15;;;;;;;11.55;8.50;;;13.30;99.90;;;;;;2091442;28;20056;-71
2023/05/31 02:50:15;;;;;;;11.00;9.82;;;13.30;99.90;;;;;;2091562;28;20136;-72
2023/05/31 02:51:16;;;;;;;10.43;9.15;;;13.30;99.90;;;;;;2091961;28;20025;-71
2023/05/31 02:52:17;;;;;;;10.32;8.40;;;13.30;99.90;;;;;;2091522;28;20021;-71
2023/05/31 02:53:18;;;;;;;8.60;7.70;;;13.30;99.90;;;;;;2089879;28;20025;-71
2023/05/31 02:54:19;;;;;;;9.55;8.68;;;13.30;99.90;;;;;;2093360;28;20066;-72
2023/05/31 02:55:20;;;;;;;9.95;8.65;;;13.30;99.90;;;;;;2089891;28;20013;-72
2023/05/31 02:56:21;;;;;;;7.80;7.00;;;13.30;99.90;;;;;;2091972;28;20818;-71
2023/05/31 02:57:21;;;;;;;9.57;8.77;;;13.20;99.90;;;;;;2082778;28;20030;-72
2023/05/31 02:58:22;;;;;;;10.82;9.82;;;13.30;99.90;;;;;;2083033;28;20048;-72
2023/05/31 02:59:23;;;;;;;10.45;9.55;;;13.20;99.90;;;;;;2089801;28;20079;-72
2023/05/31 03:00:25;;;;;;;11.25;9.82;;;13.20;99.90;;;;;;2090882;28;20096;-72
2023/05/31 03:01:26;;;;;;;10.60;9.13;;;13.20;99.90;;;;;;2093911;28;20107;-72
2023/05/31 03:02:26;;;;;;;10.68;9.65;;;13.20;99.90;;;;;;2091507;28;20032;-71
2023/05/31 03:03:27;;;;;;;10.30;9.40;;;13.20;99.90;;;;;;2091437;28;20021;-71
2023/05/31 03:04:27;;;;;;;8.75;7.95;;;13.20;99.90;;;;;;2091554;28;20016;-72
2023/05/31 03:05:29;;;;;;;9.20;8.30;;;13.20;99.90;;;;;;2090686;28;20016;-71
2023/05/31 03:06:29;;;;;;;8.88;8.07;;;13.20;99.90;;;;;;2094731;28;20024;-72
2023/05/31 03:07:30;;;;;;;10.02;9.02;;;13.20;99.90;;;;;;2093862;28;20031;-71
2023/05/31 03:08:30;;;;;;;9.30;8.40;;;13.20;99.90;;;;;;2096920;28;20847;-71
2023/05/31 03:09:31;;;;;;;8.95;8.15;;;13.20;99.90;;;;;;2089487;28;20028;-72
2023/05/31 03:10:32;;;;;;;10.63;9.50;;;13.20;99.90;;;;;;2090346;28;20052;-71
2023/05/31 03:11:32;;;;;;;10.13;8.27;;;13.20;99.90;;;;;;2092229;28;20049;-71
2023/05/31 03:12:33;;;;;;;9.82;8.82;;;13.20;99.90;;;;;;2093486;28;20024;-71
2023/05/31 03:13:33;;;;;;;9.18;8.35;;;13.20;99.90;;;;;;2094018;28;20028;-72
2023/05/31 03:14:34;;;;;;;9.27;8.38;;;13.20;99.90;;;;;;2091606;28;20025;-72
2023/05/31 03:15:35;;;;;;;11.43;10.10;;;13.20;99.90;;;;;;2089409;28;20021;-71
2023/05/31 03:16:36;;;;;;;10.10;8.50;;;13.20;99.90;;;;;;2090460;28;20037;-71
2023/05/31 03:17:37;;;;;;;9.98;8.43;;;13.20;99.90;;;;;;2090859;28;20021;-72
2023/05/31 03:18:37;;;;;;;10.10;9.10;;;13.20;99.90;;;;;;2090759;28;20531;-72
2023/05/31 03:19:38;;;;;;;9.93;9.02;;;13.20;99.90;;;;;;2091509;28;20029;-72
2023/05/31 03:20:38;;;;;;;8.73;7.90;;;13.10;99.90;;;;;;2089079;28;20029;-71
2023/05/31 03:21:39;;;;;;;9.23;8.25;;;13.20;99.90;;;;;;2090873;28;20017;-71
2023/05/31 03:22:40;;;;;;;9.00;8.15;;;13.10;99.90;;;;;;2091218;28;20096;-72
2023/05/31 03:23:40;;;;;;;9.15;8.27;;;13.10;99.90;;;;;;2091251;28;20100;-72
2023/05/31 03:24:41;;;;;;;8.80;7.93;;;13.10;99.90;;;;;;2094572;28;20254;-72
2023/05/31 03:25:41;;;;;;;8.77;7.97;;;13.10;99.90;;;;;;2094688;28;20052;-71
2023/05/31 03:26:42;;;;;;;9.25;8.27;;;13.10;99.90;;;;;;2091029;28;20402;-71
2023/05/31 03:27:42;;;;;;;7.32;6.72;;;13.10;99.90;;;;;;2094119;28;20074;-72
2023/05/31 03:28:43;;;;;;;8.88;8.07;;;13.10;99.90;;;;;;2088952;28;20033;-72
2023/05/31 03:29:43;;;;;;;9.13;8.25;;;13.10;99.90;;;;;;2091071;28;20035;-72
2023/05/31 03:30:44;;;;;;;8.38;7.57;;;13.10;99.90;;;;;;2089705;28;20021;-72
2023/05/31 03:31:45;;;;;;;8.43;7.63;;;13.10;99.90;;;;;;2092074;28;20025;-71
2023/05/31 03:32:45;;;;;;;6.63;6.03;;;13.10;99.90;;;;;;2094522;28;20024;-72
2023/05/31 03:33:46;;;;;;;8.73;7.82;;;13.10;99.90;;;;;;2094319;28;20641;-72
2023/05/31 03:34:46;;;;;;;10.65;8.40;;;13.10;99.90;;;;;;2091207;28;20029;-72
2023/05/31 03:35:47;;;;;;;8.70;7.63;;;13.10;99.90;;;;;;2090775;28;20111;-71
2023/05/31 03:36:47;;;;;;;8.77;7.97;;;13.10;99.90;;;;;;2091348;28;20029;-72
2023/05/31 03:37:48;;;;;;;7.93;7.18;;;13.10;99.90;;;;;;2092071;28;20104;-72
2023/05/31 03:38:48;;;;;;;9.50;8.60;;;13.00;99.90;;;;;;2092291;28;20021;-71
2023/05/31 03:39:50;;;;;;;9.65;8.77;;;13.10;99.90;;;;;;2090853;28;20034;-72
2023/05/31 03:40:50;;;;;;;10.27;8.65;;;13.10;99.90;;;;;;2093340;28;20015;-71
2023/05/31 03:41:51;;;;;;;10.70;9.70;;;13.10;99.90;;;;;;2093771;28;20027;-71
2023/05/31 03:42:51;;;;;;;10.05;9.05;;;13.00;99.90;;;;;;2093546;28;20500;-71
2023/05/31 03:43:52;;;;;;;9.07;7.72;;;13.00;99.90;;;;;;2091264;28;20472;-71
2023/05/31 03:44:52;;;;;;;10.25;9.25;;;13.00;99.90;;;;;;2089430;28;20044;-71
2023/05/31 03:45:53;;;;;;;8.18;7.40;;;13.00;99.90;;;;;;2091177;28;20033;-71
2023/05/31 03:46:53;;;;;;;9.82;8.77;;;13.00;99.90;;;;;;2093458;28;20051;-71
2023/05/31 03:47:54;;;;;;;9.55;8.55;;;13.00;99.90;;;;;;2092892;28;20029;-71
2023/05/31 03:48:54;;;;;;;10.48;9.40;;;13.00;99.90;;;;;;2092427;28;20112;-72
2023/05/31 03:49:55;;;;;;;10.90;9.80;;;13.00;99.90;;;;;;2092333;28;20028;-71
2023/05/31 03:50:56;;;;;;;10.55;9.52;;;13.00;99.90;;;;;;2091089;28;20041;-71
2023/05/31 03:51:57;;;;;;;8.88;7.97;;;13.00;99.90;;;;;;2091653;28;20058;-71
2023/05/31 03:52:57;;;;;;;9.80;8.90;;;13.00;99.90;;;;;;2091250;28;20078;-71
2023/05/31 03:53:58;;;;;;;11.70;10.48;;;13.00;99.90;;;;;;2091598;28;20074;-72
2023/05/31 03:54:59;;;;;;;11.02;9.95;;;13.00;99.90;;;;;;2091944;28;20029;-71
2023/05/31 03:56:00;;;;;;;12.07;10.85;;;13.00;99.90;;;;;;2090803;28;20021;-72
2023/05/31 03:57:00;;;;;;;11.60;10.43;;;13.00;99.90;;;;;;2089728;28;20036;-72
2023/05/31 03:58:02;;;;;;;10.90;9.88;;;13.00;99.90;;;;;;2091273;28;20542;-72
2023/05/31 03:59:03;;;;;;;12.30;11.10;;;13.00;99.90;;;;;;2091326;28;20099;-71
2023/05/31 04:00:04;;;;;;;12.32;11.13;;;13.10;99.90;;;;;;2092885;28;20013;-71
2023/05/31 04:01:06;;;;;;;13.63;10.65;;;13.10;99.90;;;;;;2090678;28;20036;-71
2023/05/31 04:02:06;;;;;;;12.13;11.00;;;13.10;99.90;;;;;;2091417;28;20021;-72
2023/05/31 04:03:07;;;;;;;12.02;10.45;;;13.10;99.90;;;;;;2090106;28;20021;-71
2023/05/31 04:04:08;;;;;;;11.80;10.00;;;13.20;99.90;;;;;;2091036;28;20013;-71
2023/05/31 04:05:08;;;;;;;13.45;10.50;;;13.20;99.90;;;;;;2089584;28;20025;-71
2023/05/31 04:06:10;;;;;;;11.13;10.02;;;13.30;99.90;;;;;;2090688;28;20083;-71
2023/05/31 04:07:10;;;;;;;11.18;9.55;;;13.30;99.90;;;;;;2090153;28;20021;-71
2023/05/31 04:08:11;;;;;;;11.13;10.02;;;13.50;99.90;;;;;;2092116;28;20028;-71
2023/05/31 04:09:11;;;;;;;12.40;10.13;;;13.50;99.90;;;;;;2092599;28;20031;-71
2023/05/31 04:10:12;;;;;;;12.93;10.50;;;13.60;99.90;;;;;;2093826;28;20108;-71
2023/05/31 04:11:13;;;;;;;11.63;10.48;;;13.60;99.90;;;;;;2090996;28;20029;-71
2023/05/31 04:12:13;;;;;;;11.57;10.30;;;13.60;99.90;;;;;;2093166;28;20577;-71
2023/05/31 04:13:14;;;;;;;10.85;9.75;;;13.60;99.90;;;;;;2094000;28;20032;-71
2023/05/31 04:14:14;;;;;;;8.20;7.45;;;13.60;99.90;;;;;;2092699;28;20422;-71
2023/05/31 04:15:15;;;;;;;10.27;9.32;;;13.60;99.90;;;;;;2092588;28;20099;-71
2023/05/31 04:16:15;;;;;;;11.63;9.65;;;13.60;99.90;;;;;;2090146;28;20029;-71
2023/05/31 04:17:16;;;;;;;9.75;8.75;;;13.60;99.90;;;;;;2091729;28;20465;-71
2023/05/31 04:18:17;;;;;;;11.40;10.30;;;13.70;99.90;;;;;;2091695;28;20040;-71
2023/05/31 04:19:17;;;;;;;10.13;9.13;;;13.70;99.90;;;;;;2093695;28;20032;-71
2023/05/31 04:20:19;;;;;;;11.65;10.25;;;13.80;99.90;;;;;;2093373;28;20031;-71
2023/05/31 04:21:20;;;;;;;11.45;10.35;;;13.80;99.90;;;;;;2091391;28;20743;-72
2023/05/31 04:22:22;;;;;;;14.77;10.70;;;14.00;99.90;;;;;;2093975;28;20028;-71
2023/05/31 04:23:24;;;;;;;11.40;10.32;;;14.20;99.90;;;;;;2091577;28;20399;-71
2023/05/31 04:24:24;;;;;;;11.57;10.38;;;14.40;99.90;;;;;;2092336;28;20021;-71
2023/05/31 04:25:25;;;;;;;11.02;10.00;;;14.60;99.90;;;;;;2092205;28;20342;-71
2023/05/31 04:26:25;;;;;;;9.15;8.25;;;14.80;99.90;;;;;;2094241;28;20029;-71
2023/05/31 04:27:27;;;;;;;11.25;10.10;;;15.00;99.90;;;;;;2092075;28;20029;-71
2023/05/31 04:28:29;;;;;;;10.82;9.35;;;15.20;99.90;;;;;;2091924;28;20043;-71
2023/05/31 04:29:30;;;;;;;11.68;10.50;;;15.20;99.90;;;;;;2093963;28;20468;-71
2023/05/31 04:30:30;;;;;;;11.57;9.73;;;15.30;99.90;;;;;;2093978;28;20453;-71
2023/05/31 04:31:35;;;;;;;11.57;9.52;;;15.30;99.90;;;;;;2094429;28;20026;-71
2023/05/31 04:32:35;;;;;;;10.40;9.40;;;15.30;99.90;;;;;;2093742;28;20017;-71
2023/05/31 04:33:36;;;;;;;10.73;9.52;;;15.30;99.90;;;;;;2093203;28;20033;-71
2023/05/31 04:34:37;;;;;;;10.68;9.57;;;15.30;99.90;;;;;;2093820;28;20072;-71
2023/05/31 04:35:38;;;;;;;9.88;8.73;;;15.30;99.90;;;;;;2090785;28;20484;-71
2023/05/31 04:36:38;;;;;;;11.40;9.43;;;15.30;99.90;;;;;;2091102;28;20060;-71
2023/05/31 04:37:39;;;;;;;9.73;8.82;;;15.30;99.90;;;;;;2093476;28;20550;-71
2023/05/31 04:38:40;;;;;;;10.95;9.48;;;15.30;99.90;;;;;;2093884;28;20021;-71
2023/05/31 04:39:40;;;;;;;9.93;8.85;;;15.40;99.90;;;;;;2092318;28;20020;-71
2023/05/31 04:40:42;;;;;;;10.68;9.18;;;15.40;99.90;;;;;;2093690;28;20033;-71
2023/05/31 04:41:42;;;;;;;10.68;9.68;;;15.50;99.90;;;;;;2092885;28;20021;-72
2023/05/31 04:42:43;;;;;;;10.38;9.48;;;15.50;99.90;;;;;;2094100;28;20024;-71
2023/05/31 04:43:43;;;;;;;9.88;8.90;;;15.50;99.90;;;;;;2092002;28;20036;-71
2023/05/31 04:44:45;;;;;;;9.38;8.57;;;15.50;99.90;;;;;;2092725;28;20158;-71
2023/05/31 04:45:47;;;;;;;9.88;8.88;;;15.60;99.90;;;;;;2093659;28;20090;-71
2023/05/31 04:46:47;;;;;;;9.20;8.30;;;15.60;99.90;;;;;;2094248;28;20025;-71
2023/05/31 04:47:49;;;;;;;9.50;8.60;;;15.60;99.90;;;;;;2093460;28;20071;-72
2023/05/31 04:48:50;;;;;;;9.55;8.45;;;15.70;99.90;;;;;;2095576;28;20403;-71
2023/05/31 04:49:50;;;;;;;12.27;9.07;;;15.80;99.90;;;;;;2092285;28;20032;-71
2023/05/31 04:50:51;;;;;;;8.70;7.80;;;15.80;99.90;;;;;;2090187;28;20033;-71
2023/05/31 04:51:51;;;;;;;9.40;8.45;;;15.90;99.90;;;;;;2091938;28;20079;-71
2023/05/31 04:52:52;;;;;;;10.25;9.23;;;15.90;99.90;;;;;;2094397;28;20035;-71
2023/05/31 04:53:53;;;;;;;9.40;8.48;;;16.00;99.90;;;;;;2094263;28;20032;-72
2023/05/31 04:54:54;;;;;;;10.70;8.38;;;16.10;99.90;;;;;;2095047;28;20039;-71
2023/05/31 04:55:54;;;;;;;10.15;9.07;;;16.10;99.90;;;;;;2093968;28;20024;-72
2023/05/31 04:56:55;;;;;;;10.50;8.25;;;16.20;99.90;;;;;;2093531;28;20420;-71
2023/05/31 04:57:55;;;;;;;10.15;9.02;;;16.20;99.90;;;;;;2092462;28;20029;-71
2023/05/31 04:58:56;;;;;;;13.73;9.15;;;16.30;99.90;;;;;;2092832;28;20477;-71
2023/05/31 04:59:56;;;;;;;9.82;8.88;;;16.40;99.90;;;;;;2091776;28;20017;-71
2023/05/31 05:00:59;;;;;;;9.15;8.32;;;16.40;99.90;;;;;;2093986;28;20029;-71
2023/05/31 05:02:00;;;;;;;9.77;8.88;;;16.50;99.90;;;;;;2094568;28;20017;-71
2023/05/31 05:03:00;;;;;;;12.63;9.82;;;16.60;99.90;;;;;;2093999;28;20095;-71
2023/05/31 05:04:01;;;;;;;10.93;9.65;;;16.60;99.90;;;;;;2092084;28;20033;-71
2023/05/31 05:05:04;;;;;;;10.25;9.10;;;16.60;99.90;;;;;;2094093;28;20095;-71
2023/05/31 05:06:15;;;;;;;12.15;9.57;;;16.70;99.90;;;;;;2092970;28;20048;-71
2023/05/31 05:07:16;;;;;;;9.88;8.88;;;16.70;99.90;;;;;;2094692;28;20015;-72
2023/05/31 05:08:17;;;;;;;10.43;8.43;;;16.80;99.90;;;;;;2092500;28;20023;-71
2023/05/31 05:09:18;;;;;;;9.50;8.50;;;16.90;99.90;;;;;;2092617;28;20112;-71
2023/05/31 05:10:19;;;;;;;11.18;9.65;;;16.90;99.90;;;;;;2091962;28;20079;-71
2023/05/31 05:11:19;;;;;;;14.52;9.82;;;17.00;99.90;;;;;;2093516;28;20118;-71
2023/05/31 05:12:20;;;;;;;11.82;9.40;;;17.00;99.90;;;;;;2092584;28;20025;-72
2023/05/31 05:13:20;;;;;;;10.25;9.25;;;17.10;99.90;;;;;;2090990;28;20492;-71
2023/05/31 05:14:21;;;;;;;10.43;9.38;;;17.10;99.90;;;;;;2094886;28;20422;-71
2023/05/31 05:15:21;;;;;;;10.77;9.13;;;17.20;99.90;;;;;;2095164;28;20029;-71
2023/05/31 05:16:22;;;;;;;11.52;9.73;;;17.20;99.90;;;;;;2092919;28;20017;-71
2023/05/31 05:17:22;;;;;;;12.95;9.73;;;17.20;99.90;;;;;;2093004;28;20058;-71
2023/05/31 05:18:23;;;;;;;11.50;9.50;;;17.30;99.90;;;;;;2093548;28;20020;-71
2023/05/31 05:19:23;;;;;;;12.13;9.15;;;17.30;99.90;;;;;;2093917;28;20119;-72